sensor_id;sensor_type;location;lat;lon;timestamp;P1;durP1;ratioP1;P2;durP2;ratioP2
39370;SDS011;25099;51.946;4.838;2024-02-14T00:00:12;9.38;;;8.57;;
39370;SDS011;25099;51.946;4.838;2024-02-14T00:02:43;10.50;;;9.47;;
39370;SDS011;25099;51.946;4.838;2024-02-14T00:05:09;9.15;;;8.23;;
39370;SDS011;25099;51.946;4.838;2024-02-14T00:07:36;13.25;;;10.30;;
39370;SDS011;25099;51.946;4.838;2024-02-14T00:10:02;9.70;;;8.80;;
39370;SDS011;25099;51.946;4.838;2024-02-14T00:12:28;12.57;;;9.27;;
39370;SDS011;25099;51.946;4.838;2024-02-14T00:14:53;10.45;;;9.50;;
39370;SDS011;25099;51.946;4.838;2024-02-14T00:17:19;12.38;;;9.65;;
39370;SDS011;25099;51.946;4.838;2024-02-14T00:19:44;14.98;;;10.73;;
39370;SDS011;25099;51.946;4.838;2024-02-14T00:22:10;11.27;;;10.30;;
39370;SDS011;25099;51.946;4.838;2024-02-14T00:24:35;10.98;;;10.02;;
39370;SDS011;25099;51.946;4.838;2024-02-14T00:27:01;11.27;;;10.10;;
39370;SDS011;25099;51.946;4.838;2024-02-14T00:29:28;12.07;;;10.70;;
39370;SDS011;25099;51.946;4.838;2024-02-14T00:31:53;15.63;;;10.80;;
39370;SDS011;25099;51.946;4.838;2024-02-14T00:34:19;12.15;;;10.95;;
39370;SDS011;25099;51.946;4.838;2024-02-14T00:36:46;13.20;;;9.68;;
39370;SDS011;25099;51.946;4.838;2024-02-14T00:39:11;12.75;;;10.45;;
39370;SDS011;25099;51.946;4.838;2024-02-14T00:41:37;11.02;;;10.02;;
39370;SDS011;25099;51.946;4.838;2024-02-14T00:44:02;11.65;;;10.55;;
39370;SDS011;25099;51.946;4.838;2024-02-14T00:46:28;12.93;;;10.77;;
39370;SDS011;25099;51.946;4.838;2024-02-14T00:48:54;12.68;;;10.95;;
39370;SDS011;25099;51.946;4.838;2024-02-14T00:51:21;13.00;;;11.07;;
39370;SDS011;25099;51.946;4.838;2024-02-14T00:53:47;13.90;;;10.82;;
39370;SDS011;25099;51.946;4.838;2024-02-14T00:56:12;12.70;;;11.40;;
39370;SDS011;25099;51.946;4.838;2024-02-14T00:58:38;13.07;;;10.88;;
39370;SDS011;25099;51.946;4.838;2024-02-14T01:01:04;17.02;;;11.20;;
39370;SDS011;25099;51.946;4.838;2024-02-14T01:03:30;13.82;;;11.75;;
39370;SDS011;25099;51.946;4.838;2024-02-14T01:05:56;12.93;;;11.45;;
39370;SDS011;25099;51.946;4.838;2024-02-14T01:08:22;12.20;;;10.98;;
39370;SDS011;25099;51.946;4.838;2024-02-14T01:10:47;12.60;;;11.45;;
39370;SDS011;25099;51.946;4.838;2024-02-14T01:13:15;12.55;;;11.40;;
39370;SDS011;25099;51.946;4.838;2024-02-14T01:15:40;13.48;;;12.07;;
39370;SDS011;25099;51.946;4.838;2024-02-14T01:18:06;14.98;;;11.38;;
39370;SDS011;25099;51.946;4.838;2024-02-14T01:20:32;14.23;;;11.10;;
39370;SDS011;25099;51.946;4.838;2024-02-14T01:22:57;12.68;;;11.30;;
39370;SDS011;25099;51.946;4.838;2024-02-14T01:25:24;11.73;;;10.52;;
39370;SDS011;25099;51.946;4.838;2024-02-14T01:27:50;12.43;;;11.13;;
39370;SDS011;25099;51.946;4.838;2024-02-14T01:30:17;13.32;;;11.00;;
39370;SDS011;25099;51.946;4.838;2024-02-14T01:32:43;13.40;;;11.20;;
39370;SDS011;25099;51.946;4.838;2024-02-14T01:35:09;12.30;;;11.25;;
39370;SDS011;25099;51.946;4.838;2024-02-14T01:37:34;17.60;;;11.45;;
39370;SDS011;25099;51.946;4.838;2024-02-14T01:40:00;12.23;;;10.88;;
39370;SDS011;25099;51.946;4.838;2024-02-14T01:42:26;13.82;;;11.98;;
39370;SDS011;25099;51.946;4.838;2024-02-14T01:44:52;12.23;;;11.13;;
39370;SDS011;25099;51.946;4.838;2024-02-14T01:47:19;15.55;;;12.07;;
39370;SDS011;25099;51.946;4.838;2024-02-14T01:49:45;15.13;;;11.57;;
39370;SDS011;25099;51.946;4.838;2024-02-14T01:52:12;11.90;;;10.88;;
39370;SDS011;25099;51.946;4.838;2024-02-14T01:54:38;14.98;;;11.57;;
39370;SDS011;25099;51.946;4.838;2024-02-14T01:57:04;20.00;;;12.90;;
39370;SDS011;25099;51.946;4.838;2024-02-14T01:59:30;13.00;;;11.68;;
39370;SDS011;25099;51.946;4.838;2024-02-14T02:01:56;14.73;;;12.10;;
39370;SDS011;25099;51.946;4.838;2024-02-14T02:04:22;13.52;;;12.20;;
39370;SDS011;25099;51.946;4.838;2024-02-14T02:06:49;14.32;;;12.32;;
39370;SDS011;25099;51.946;4.838;2024-02-14T02:09:15;14.88;;;10.80;;
39370;SDS011;25099;51.946;4.838;2024-02-14T02:11:50;14.90;;;12.30;;
39370;SDS011;25099;51.946;4.838;2024-02-14T02:14:18;13.45;;;12.15;;
39370;SDS011;25099;51.946;4.838;2024-02-14T02:16:44;13.48;;;12.18;;
39370;SDS011;25099;51.946;4.838;2024-02-14T02:19:11;14.55;;;12.55;;
39370;SDS011;25099;51.946;4.838;2024-02-14T02:21:36;13.15;;;11.82;;
39370;SDS011;25099;51.946;4.838;2024-02-14T02:24:02;16.73;;;13.10;;
39370;SDS011;25099;51.946;4.838;2024-02-14T02:26:28;13.63;;;12.32;;
39370;SDS011;25099;51.946;4.838;2024-02-14T02:28:54;14.20;;;12.77;;
39370;SDS011;25099;51.946;4.838;2024-02-14T02:31:22;17.50;;;13.05;;
39370;SDS011;25099;51.946;4.838;2024-02-14T02:33:47;23.55;;;13.77;;
39370;SDS011;25099;51.946;4.838;2024-02-14T02:36:14;17.08;;;14.27;;
39370;SDS011;25099;51.946;4.838;2024-02-14T02:38:41;14.15;;;12.75;;
39370;SDS011;25099;51.946;4.838;2024-02-14T02:41:07;21.77;;;14.75;;
39370;SDS011;25099;51.946;4.838;2024-02-14T02:43:32;18.70;;;14.57;;
39370;SDS011;25099;51.946;4.838;2024-02-14T02:45:59;14.50;;;13.13;;
39370;SDS011;25099;51.946;4.838;2024-02-14T02:48:24;15.18;;;13.63;;
39370;SDS011;25099;51.946;4.838;2024-02-14T02:50:50;16.25;;;13.63;;
39370;SDS011;25099;51.946;4.838;2024-02-14T02:53:16;14.85;;;13.30;;
39370;SDS011;25099;51.946;4.838;2024-02-14T02:55:42;15.25;;;13.73;;
39370;SDS011;25099;51.946;4.838;2024-02-14T02:58:09;15.27;;;13.70;;
39370;SDS011;25099;51.946;4.838;2024-02-14T03:00:35;18.00;;;14.02;;
39370;SDS011;25099;51.946;4.838;2024-02-14T03:03:00;15.70;;;13.82;;
39370;SDS011;25099;51.946;4.838;2024-02-14T03:05:29;14.18;;;12.70;;
39370;SDS011;25099;51.946;4.838;2024-02-14T03:07:56;14.75;;;13.23;;
39370;SDS011;25099;51.946;4.838;2024-02-14T03:10:23;20.67;;;13.00;;
39370;SDS011;25099;51.946;4.838;2024-02-14T03:12:50;20.42;;;12.27;;
39370;SDS011;25099;51.946;4.838;2024-02-14T03:15:15;13.63;;;11.93;;
39370;SDS011;25099;51.946;4.838;2024-02-14T03:17:42;19.42;;;13.80;;
39370;SDS011;25099;51.946;4.838;2024-02-14T03:20:08;17.00;;;11.82;;
39370;SDS011;25099;51.946;4.838;2024-02-14T03:22:39;19.48;;;12.27;;
39370;SDS011;25099;51.946;4.838;2024-02-14T03:25:11;15.43;;;12.80;;
39370;SDS011;25099;51.946;4.838;2024-02-14T03:27:44;16.80;;;12.30;;
39370;SDS011;25099;51.946;4.838;2024-02-14T03:30:14;17.05;;;13.02;;
39370;SDS011;25099;51.946;4.838;2024-02-14T03:32:41;22.67;;;12.18;;
39370;SDS011;25099;51.946;4.838;2024-02-14T03:35:07;16.30;;;11.18;;
39370;SDS011;25099;51.946;4.838;2024-02-14T03:37:35;14.30;;;11.20;;
39370;SDS011;25099;51.946;4.838;2024-02-14T03:40:02;15.05;;;11.23;;
39370;SDS011;25099;51.946;4.838;2024-02-14T03:42:29;15.90;;;10.65;;
39370;SDS011;25099;51.946;4.838;2024-02-14T03:44:55;15.40;;;11.18;;
39370;SDS011;25099;51.946;4.838;2024-02-14T03:47:27;18.38;;;12.05;;
39370;SDS011;25099;51.946;4.838;2024-02-14T03:49:54;17.83;;;10.77;;
39370;SDS011;25099;51.946;4.838;2024-02-14T03:52:19;18.67;;;11.70;;
39370;SDS011;25099;51.946;4.838;2024-02-14T03:54:47;14.75;;;10.27;;
39370;SDS011;25099;51.946;4.838;2024-02-14T03:57:13;19.67;;;10.45;;
39370;SDS011;25099;51.946;4.838;2024-02-14T03:59:38;16.48;;;10.25;;
39370;SDS011;25099;51.946;4.838;2024-02-14T04:02:04;15.07;;;10.25;;
39370;SDS011;25099;51.946;4.838;2024-02-14T04:04:35;23.98;;;10.60;;
39370;SDS011;25099;51.946;4.838;2024-02-14T04:07:06;17.98;;;10.48;;
39370;SDS011;25099;51.946;4.838;2024-02-14T04:09:33;16.25;;;10.20;;
39370;SDS011;25099;51.946;4.838;2024-02-14T04:11:59;18.65;;;10.30;;
39370;SDS011;25099;51.946;4.838;2024-02-14T04:14:25;11.38;;;10.07;;
39370;SDS011;25099;51.946;4.838;2024-02-14T04:16:50;16.27;;;10.45;;
39370;SDS011;25099;51.946;4.838;2024-02-14T04:19:16;18.85;;;10.35;;
39370;SDS011;25099;51.946;4.838;2024-02-14T04:21:42;20.08;;;10.27;;
39370;SDS011;25099;51.946;4.838;2024-02-14T04:24:08;14.68;;;10.48;;
39370;SDS011;25099;51.946;4.838;2024-02-14T04:26:34;16.20;;;10.90;;
39370;SDS011;25099;51.946;4.838;2024-02-14T04:29:00;20.02;;;10.80;;
39370;SDS011;25099;51.946;4.838;2024-02-14T04:31:26;20.33;;;10.82;;
39370;SDS011;25099;51.946;4.838;2024-02-14T04:33:52;21.80;;;11.20;;
39370;SDS011;25099;51.946;4.838;2024-02-14T04:36:18;23.73;;;10.35;;
39370;SDS011;25099;51.946;4.838;2024-02-14T04:38:48;16.60;;;10.05;;
39370;SDS011;25099;51.946;4.838;2024-02-14T04:41:14;14.88;;;10.73;;
39370;SDS011;25099;51.946;4.838;2024-02-14T04:43:40;18.90;;;10.68;;
39370;SDS011;25099;51.946;4.838;2024-02-14T04:46:06;16.88;;;10.45;;
39370;SDS011;25099;51.946;4.838;2024-02-14T04:48:32;18.08;;;9.95;;
39370;SDS011;25099;51.946;4.838;2024-02-14T04:50:58;18.45;;;11.32;;
39370;SDS011;25099;51.946;4.838;2024-02-14T04:53:24;17.17;;;11.02;;
39370;SDS011;25099;51.946;4.838;2024-02-14T04:55:49;20.00;;;12.15;;
39370;SDS011;25099;51.946;4.838;2024-02-14T04:58:15;15.40;;;10.80;;
39370;SDS011;25099;51.946;4.838;2024-02-14T05:00:41;18.25;;;11.57;;
39370;SDS011;25099;51.946;4.838;2024-02-14T05:03:07;17.52;;;11.98;;
39370;SDS011;25099;51.946;4.838;2024-02-14T05:05:35;13.88;;;11.27;;
39370;SDS011;25099;51.946;4.838;2024-02-14T05:08:00;14.13;;;12.30;;
39370;SDS011;25099;51.946;4.838;2024-02-14T05:10:28;18.23;;;12.82;;
39370;SDS011;25099;51.946;4.838;2024-02-14T05:12:54;20.38;;;13.10;;
39370;SDS011;25099;51.946;4.838;2024-02-14T05:15:20;13.77;;;11.65;;
39370;SDS011;25099;51.946;4.838;2024-02-14T05:17:45;16.13;;;11.80;;
39370;SDS011;25099;51.946;4.838;2024-02-14T05:20:11;14.68;;;12.05;;
39370;SDS011;25099;51.946;4.838;2024-02-14T05:22:37;13.05;;;11.25;;
39370;SDS011;25099;51.946;4.838;2024-02-14T05:25:04;12.70;;;11.40;;
39370;SDS011;25099;51.946;4.838;2024-02-14T05:27:33;11.70;;;10.35;;
39370;SDS011;25099;51.946;4.838;2024-02-14T05:29:58;12.02;;;10.27;;
39370;SDS011;25099;51.946;4.838;2024-02-14T05:32:24;11.48;;;9.52;;
39370;SDS011;25099;51.946;4.838;2024-02-14T05:34:50;10.43;;;9.38;;
39370;SDS011;25099;51.946;4.838;2024-02-14T05:37:16;10.02;;;9.02;;
39370;SDS011;25099;51.946;4.838;2024-02-14T05:39:42;9.15;;;8.25;;
39370;SDS011;25099;51.946;4.838;2024-02-14T05:42:07;12.10;;;9.50;;
39370;SDS011;25099;51.946;4.838;2024-02-14T05:44:33;10.57;;;9.48;;
39370;SDS011;25099;51.946;4.838;2024-02-14T05:46:59;9.43;;;8.65;;
39370;SDS011;25099;51.946;4.838;2024-02-14T05:49:25;10.68;;;9.57;;
39370;SDS011;25099;51.946;4.838;2024-02-14T05:51:50;12.40;;;10.45;;
39370;SDS011;25099;51.946;4.838;2024-02-14T05:54:18;11.18;;;9.65;;
39370;SDS011;25099;51.946;4.838;2024-02-14T05:56:43;11.23;;;9.85;;
39370;SDS011;25099;51.946;4.838;2024-02-14T05:59:09;10.95;;;10.02;;
39370;SDS011;25099;51.946;4.838;2024-02-14T06:01:35;14.82;;;10.23;;
39370;SDS011;25099;51.946;4.838;2024-02-14T06:04:01;12.85;;;10.98;;
39370;SDS011;25099;51.946;4.838;2024-02-14T06:06:26;15.07;;;11.35;;
39370;SDS011;25099;51.946;4.838;2024-02-14T06:08:52;12.88;;;11.02;;
39370;SDS011;25099;51.946;4.838;2024-02-14T06:11:17;16.52;;;11.95;;
39370;SDS011;25099;51.946;4.838;2024-02-14T06:13:46;16.83;;;11.98;;
39370;SDS011;25099;51.946;4.838;2024-02-14T06:16:12;21.48;;;12.93;;
39370;SDS011;25099;51.946;4.838;2024-02-14T06:18:38;13.18;;;11.70;;
39370;SDS011;25099;51.946;4.838;2024-02-14T06:21:05;17.58;;;12.70;;
39370;SDS011;25099;51.946;4.838;2024-02-14T06:23:31;14.30;;;12.15;;
39370;SDS011;25099;51.946;4.838;2024-02-14T06:25:57;19.75;;;13.20;;
39370;SDS011;25099;51.946;4.838;2024-02-14T06:28:23;19.00;;;13.20;;
39370;SDS011;25099;51.946;4.838;2024-02-14T06:30:48;15.98;;;12.68;;
39370;SDS011;25099;51.946;4.838;2024-02-14T06:33:14;18.67;;;13.75;;
39370;SDS011;25099;51.946;4.838;2024-02-14T06:35:40;16.65;;;13.68;;
39370;SDS011;25099;51.946;4.838;2024-02-14T06:38:05;16.70;;;13.35;;
39370;SDS011;25099;51.946;4.838;2024-02-14T06:40:31;19.88;;;14.98;;
39370;SDS011;25099;51.946;4.838;2024-02-14T06:42:58;23.30;;;15.32;;
39370;SDS011;25099;51.946;4.838;2024-02-14T06:45:25;27.10;;;15.40;;
39370;SDS011;25099;51.946;4.838;2024-02-14T06:47:52;20.52;;;14.57;;
39370;SDS011;25099;51.946;4.838;2024-02-14T06:50:19;19.58;;;15.45;;
39370;SDS011;25099;51.946;4.838;2024-02-14T06:52:45;20.90;;;15.07;;
39370;SDS011;25099;51.946;4.838;2024-02-14T06:55:11;23.27;;;15.95;;
39370;SDS011;25099;51.946;4.838;2024-02-14T06:57:36;21.50;;;16.23;;
39370;SDS011;25099;51.946;4.838;2024-02-14T07:00:02;20.17;;;15.68;;
39370;SDS011;25099;51.946;4.838;2024-02-14T07:02:30;19.33;;;15.68;;
39370;SDS011;25099;51.946;4.838;2024-02-14T07:04:56;26.00;;;16.65;;
39370;SDS011;25099;51.946;4.838;2024-02-14T07:07:22;18.45;;;15.27;;
39370;SDS011;25099;51.946;4.838;2024-02-14T07:09:47;17.70;;;15.48;;
39370;SDS011;25099;51.946;4.838;2024-02-14T07:12:13;20.08;;;15.20;;
39370;SDS011;25099;51.946;4.838;2024-02-14T07:14:38;17.48;;;15.32;;
39370;SDS011;25099;51.946;4.838;2024-02-14T07:17:04;20.63;;;14.68;;
39370;SDS011;25099;51.946;4.838;2024-02-14T07:19:30;17.35;;;15.10;;
39370;SDS011;25099;51.946;4.838;2024-02-14T07:21:55;17.48;;;14.43;;
39370;SDS011;25099;51.946;4.838;2024-02-14T07:24:21;16.80;;;13.07;;
39370;SDS011;25099;51.946;4.838;2024-02-14T07:26:47;21.65;;;14.05;;
39370;SDS011;25099;51.946;4.838;2024-02-14T07:29:12;15.23;;;12.88;;
39370;SDS011;25099;51.946;4.838;2024-02-14T07:31:38;14.57;;;12.80;;
39370;SDS011;25099;51.946;4.838;2024-02-14T07:34:04;14.75;;;13.25;;
39370;SDS011;25099;51.946;4.838;2024-02-14T07:36:31;17.05;;;13.55;;
39370;SDS011;25099;51.946;4.838;2024-02-14T07:38:57;16.05;;;13.45;;
39370;SDS011;25099;51.946;4.838;2024-02-14T07:41:22;16.42;;;12.95;;
39370;SDS011;25099;51.946;4.838;2024-02-14T07:43:48;14.27;;;12.77;;
39370;SDS011;25099;51.946;4.838;2024-02-14T07:46:20;18.27;;;13.52;;
39370;SDS011;25099;51.946;4.838;2024-02-14T07:48:47;20.63;;;14.57;;
39370;SDS011;25099;51.946;4.838;2024-02-14T07:51:13;19.95;;;14.80;;
39370;SDS011;25099;51.946;4.838;2024-02-14T07:53:39;17.02;;;14.27;;
39370;SDS011;25099;51.946;4.838;2024-02-14T07:56:05;21.63;;;14.00;;
39370;SDS011;25099;51.946;4.838;2024-02-14T07:58:30;19.30;;;13.25;;
39370;SDS011;25099;51.946;4.838;2024-02-14T08:00:56;15.73;;;13.95;;
39370;SDS011;25099;51.946;4.838;2024-02-14T08:03:21;23.13;;;13.95;;
39370;SDS011;25099;51.946;4.838;2024-02-14T08:05:47;15.85;;;12.82;;
39370;SDS011;25099;51.946;4.838;2024-02-14T08:08:13;17.00;;;11.80;;
39370;SDS011;25099;51.946;4.838;2024-02-14T08:10:38;14.68;;;12.65;;
39370;SDS011;25099;51.946;4.838;2024-02-14T08:13:05;14.45;;;12.15;;
39370;SDS011;25099;51.946;4.838;2024-02-14T08:15:31;19.90;;;12.10;;
39370;SDS011;25099;51.946;4.838;2024-02-14T08:17:57;13.82;;;11.73;;
39370;SDS011;25099;51.946;4.838;2024-02-14T08:20:24;15.52;;;12.10;;
39370;SDS011;25099;51.946;4.838;2024-02-14T08:22:49;15.48;;;12.07;;
39370;SDS011;25099;51.946;4.838;2024-02-14T08:25:17;15.95;;;12.00;;
39370;SDS011;25099;51.946;4.838;2024-02-14T08:27:43;13.32;;;10.52;;
39370;SDS011;25099;51.946;4.838;2024-02-14T08:30:09;11.73;;;10.63;;
39370;SDS011;25099;51.946;4.838;2024-02-14T08:32:37;15.15;;;11.27;;
39370;SDS011;25099;51.946;4.838;2024-02-14T08:35:02;14.15;;;10.80;;
39370;SDS011;25099;51.946;4.838;2024-02-14T08:37:28;12.98;;;11.63;;
39370;SDS011;25099;51.946;4.838;2024-02-14T08:39:54;16.23;;;12.45;;
39370;SDS011;25099;51.946;4.838;2024-02-14T08:42:21;16.25;;;13.20;;
39370;SDS011;25099;51.946;4.838;2024-02-14T08:44:47;19.67;;;13.85;;
39370;SDS011;25099;51.946;4.838;2024-02-14T08:47:12;22.20;;;14.23;;
39370;SDS011;25099;51.946;4.838;2024-02-14T08:49:40;24.17;;;14.80;;
39370;SDS011;25099;51.946;4.838;2024-02-14T08:52:06;20.15;;;14.52;;
39370;SDS011;25099;51.946;4.838;2024-02-14T08:54:35;22.40;;;14.57;;
39370;SDS011;25099;51.946;4.838;2024-02-14T08:57:01;23.67;;;16.15;;
39370;SDS011;25099;51.946;4.838;2024-02-14T08:59:27;17.80;;;15.82;;
39370;SDS011;25099;51.946;4.838;2024-02-14T09:01:53;21.42;;;16.27;;
39370;SDS011;25099;51.946;4.838;2024-02-14T09:04:19;20.23;;;16.45;;
39370;SDS011;25099;51.946;4.838;2024-02-14T09:06:44;24.05;;;17.40;;
39370;SDS011;25099;51.946;4.838;2024-02-14T09:09:10;19.60;;;16.85;;
39370;SDS011;25099;51.946;4.838;2024-02-14T09:11:36;29.35;;;16.92;;
39370;SDS011;25099;51.946;4.838;2024-02-14T09:14:02;19.67;;;17.10;;
39370;SDS011;25099;51.946;4.838;2024-02-14T09:16:31;21.98;;;16.27;;
39370;SDS011;25099;51.946;4.838;2024-02-14T09:18:58;23.38;;;16.63;;
39370;SDS011;25099;51.946;4.838;2024-02-14T09:21:24;17.63;;;15.45;;
39370;SDS011;25099;51.946;4.838;2024-02-14T09:23:49;16.40;;;13.60;;
39370;SDS011;25099;51.946;4.838;2024-02-14T09:26:15;20.30;;;14.55;;
39370;SDS011;25099;51.946;4.838;2024-02-14T09:28:41;19.42;;;13.88;;
39370;SDS011;25099;51.946;4.838;2024-02-14T09:31:07;15.70;;;14.02;;
39370;SDS011;25099;51.946;4.838;2024-02-14T09:33:35;19.83;;;15.35;;
39370;SDS011;25099;51.946;4.838;2024-02-14T09:36:02;15.20;;;12.73;;
39370;SDS011;25099;51.946;4.838;2024-02-14T09:38:29;18.98;;;14.30;;
39370;SDS011;25099;51.946;4.838;2024-02-14T09:40:54;16.02;;;12.80;;
39370;SDS011;25099;51.946;4.838;2024-02-14T09:43:37;16.40;;;13.40;;
39370;SDS011;25099;51.946;4.838;2024-02-14T09:46:06;18.00;;;14.30;;
39370;SDS011;25099;51.946;4.838;2024-02-14T09:48:32;15.80;;;13.57;;
39370;SDS011;25099;51.946;4.838;2024-02-14T09:50:59;16.70;;;13.27;;
39370;SDS011;25099;51.946;4.838;2024-02-14T09:53:25;17.02;;;14.40;;
39370;SDS011;25099;51.946;4.838;2024-02-14T09:55:54;15.98;;;14.27;;
39370;SDS011;25099;51.946;4.838;2024-02-14T09:58:20;18.55;;;14.70;;
39370;SDS011;25099;51.946;4.838;2024-02-14T10:00:46;15.77;;;13.77;;
39370;SDS011;25099;51.946;4.838;2024-02-14T10:03:11;21.90;;;13.60;;
39370;SDS011;25099;51.946;4.838;2024-02-14T10:05:37;15.93;;;14.00;;
39370;SDS011;25099;51.946;4.838;2024-02-14T10:08:03;19.77;;;14.93;;
39370;SDS011;25099;51.946;4.838;2024-02-14T10:10:31;15.88;;;13.80;;
39370;SDS011;25099;51.946;4.838;2024-02-14T10:13:00;15.65;;;13.45;;
39370;SDS011;25099;51.946;4.838;2024-02-14T10:15:28;18.23;;;14.38;;
39370;SDS011;25099;51.946;4.838;2024-02-14T10:17:54;18.95;;;14.40;;
39370;SDS011;25099;51.946;4.838;2024-02-14T10:20:20;17.65;;;13.75;;
39370;SDS011;25099;51.946;4.838;2024-02-14T10:22:46;22.20;;;13.57;;
39370;SDS011;25099;51.946;4.838;2024-02-14T10:25:12;14.02;;;12.52;;
39370;SDS011;25099;51.946;4.838;2024-02-14T10:27:39;15.13;;;12.63;;
39370;SDS011;25099;51.946;4.838;2024-02-14T10:30:06;15.30;;;12.32;;
39370;SDS011;25099;51.946;4.838;2024-02-14T10:32:39;17.08;;;11.48;;
39370;SDS011;25099;51.946;4.838;2024-02-14T10:35:12;14.52;;;10.73;;
39370;SDS011;25099;51.946;4.838;2024-02-14T10:37:39;14.10;;;11.20;;
39370;SDS011;25099;51.946;4.838;2024-02-14T10:40:05;11.60;;;10.50;;
39370;SDS011;25099;51.946;4.838;2024-02-14T10:42:31;12.40;;;10.38;;
39370;SDS011;25099;51.946;4.838;2024-02-14T10:44:58;11.27;;;10.30;;
39370;SDS011;25099;51.946;4.838;2024-02-14T10:47:28;12.20;;;10.68;;
39370;SDS011;25099;51.946;4.838;2024-02-14T10:49:57;16.27;;;10.18;;
39370;SDS011;25099;51.946;4.838;2024-02-14T10:52:29;11.95;;;10.85;;
39370;SDS011;25099;51.946;4.838;2024-02-14T10:54:58;13.85;;;10.95;;
39370;SDS011;25099;51.946;4.838;2024-02-14T10:57:27;13.13;;;10.35;;
39370;SDS011;25099;51.946;4.838;2024-02-14T11:53:15;14.48;;;11.38;;
39370;SDS011;25099;51.946;4.838;2024-02-14T11:55:51;12.20;;;11.07;;
39370;SDS011;25099;51.946;4.838;2024-02-14T11:58:49;12.65;;;10.88;;
39370;SDS011;25099;51.946;4.838;2024-02-14T12:05:00;9.80;;;8.90;;
39370;SDS011;25099;51.946;4.838;2024-02-14T12:38:44;10.10;;;9.07;;
39370;SDS011;25099;51.946;4.838;2024-02-14T12:41:09;9.35;;;8.65;;
39370;SDS011;25099;51.946;4.838;2024-02-14T12:43:35;9.98;;;9.02;;
39370;SDS011;25099;51.946;4.838;2024-02-14T12:46:01;9.73;;;8.93;;
39370;SDS011;25099;51.946;4.838;2024-02-14T12:48:29;10.20;;;9.23;;
39370;SDS011;25099;51.946;4.838;2024-02-14T12:50:55;9.38;;;8.57;;
39370;SDS011;25099;51.946;4.838;2024-02-14T12:53:21;10.43;;;9.45;;
39370;SDS011;25099;51.946;4.838;2024-02-14T12:55:47;9.85;;;9.00;;
39370;SDS011;25099;51.946;4.838;2024-02-14T12:58:13;10.50;;;9.43;;
39370;SDS011;25099;51.946;4.838;2024-02-14T13:00:39;10.00;;;9.30;;
39370;SDS011;25099;51.946;4.838;2024-02-14T13:03:05;10.82;;;9.82;;
39370;SDS011;25099;51.946;4.838;2024-02-14T13:05:30;11.20;;;10.18;;
39370;SDS011;25099;51.946;4.838;2024-02-14T13:07:56;12.88;;;11.68;;
39370;SDS011;25099;51.946;4.838;2024-02-14T13:10:22;12.40;;;11.50;;
39370;SDS011;25099;51.946;4.838;2024-02-14T13:12:48;13.38;;;11.93;;
39370;SDS011;25099;51.946;4.838;2024-02-14T13:15:14;13.65;;;12.45;;
39370;SDS011;25099;51.946;4.838;2024-02-14T13:17:41;13.02;;;11.93;;
39370;SDS011;25099;51.946;4.838;2024-02-14T13:20:07;12.82;;;11.82;;
39370;SDS011;25099;51.946;4.838;2024-02-14T13:22:33;13.93;;;12.50;;
39370;SDS011;25099;51.946;4.838;2024-02-14T13:24:58;11.73;;;10.73;;
39370;SDS011;25099;51.946;4.838;2024-02-14T13:27:25;10.35;;;9.45;;
39370;SDS011;25099;51.946;4.838;2024-02-14T13:29:53;10.88;;;9.80;;
39370;SDS011;25099;51.946;4.838;2024-02-14T13:32:28;10.48;;;9.57;;
39370;SDS011;25099;51.946;4.838;2024-02-14T13:34:54;12.35;;;9.38;;
39370;SDS011;25099;51.946;4.838;2024-02-14T13:37:19;10.15;;;9.15;;
39370;SDS011;25099;51.946;4.838;2024-02-14T13:39:46;15.10;;;9.65;;
39370;SDS011;25099;51.946;4.838;2024-02-14T13:42:12;8.77;;;7.97;;
39370;SDS011;25099;51.946;4.838;2024-02-14T13:44:37;9.35;;;7.90;;
39370;SDS011;25099;51.946;4.838;2024-02-14T13:47:03;8.02;;;7.32;;
39370;SDS011;25099;51.946;4.838;2024-02-14T13:49:29;8.73;;;6.95;;
39370;SDS011;25099;51.946;4.838;2024-02-14T13:51:54;8.63;;;6.88;;
39370;SDS011;25099;51.946;4.838;2024-02-14T13:54:30;7.20;;;6.68;;
39370;SDS011;25099;51.946;4.838;2024-02-14T13:56:55;6.05;;;5.60;;
39370;SDS011;25099;51.946;4.838;2024-02-14T13:59:21;6.90;;;6.30;;
39370;SDS011;25099;51.946;4.838;2024-02-14T14:01:47;6.95;;;6.35;;
39370;SDS011;25099;51.946;4.838;2024-02-14T14:04:12;5.72;;;5.22;;
39370;SDS011;25099;51.946;4.838;2024-02-14T14:06:50;6.50;;;5.95;;
39370;SDS011;25099;51.946;4.838;2024-02-14T14:09:16;11.07;;;5.53;;
39370;SDS011;25099;51.946;4.838;2024-02-14T14:11:47;6.10;;;5.50;;
39370;SDS011;25099;51.946;4.838;2024-02-14T14:14:21;7.20;;;6.53;;
39370;SDS011;25099;51.946;4.838;2024-02-14T14:17:01;14.13;;;7.22;;
39370;SDS011;25099;51.946;4.838;2024-02-14T14:21:52;6.68;;;5.97;;
39370;SDS011;25099;51.946;4.838;2024-02-14T14:24:19;7.38;;;6.32;;
39370;SDS011;25099;51.946;4.838;2024-02-14T14:26:51;8.38;;;6.70;;
39370;SDS011;25099;51.946;4.838;2024-02-14T14:29:17;12.25;;;6.55;;
39370;SDS011;25099;51.946;4.838;2024-02-14T14:31:43;8.75;;;5.65;;
39370;SDS011;25099;51.946;4.838;2024-02-14T14:34:08;7.35;;;5.47;;
39370;SDS011;25099;51.946;4.838;2024-02-14T14:36:35;7.25;;;5.07;;
39370;SDS011;25099;51.946;4.838;2024-02-14T14:39:02;4.82;;;4.43;;
39370;SDS011;25099;51.946;4.838;2024-02-14T14:41:28;5.80;;;4.65;;
39370;SDS011;25099;51.946;4.838;2024-02-14T14:43:54;4.45;;;4.15;;
39370;SDS011;25099;51.946;4.838;2024-02-14T14:46:20;5.10;;;4.63;;
39370;SDS011;25099;51.946;4.838;2024-02-14T14:48:45;4.68;;;3.92;;
39370;SDS011;25099;51.946;4.838;2024-02-14T14:51:11;4.60;;;4.03;;
39370;SDS011;25099;51.946;4.838;2024-02-14T14:53:37;6.03;;;3.65;;
39370;SDS011;25099;51.946;4.838;2024-02-14T14:56:05;5.50;;;3.60;;
39370;SDS011;25099;51.946;4.838;2024-02-14T14:58:31;4.70;;;4.30;;
39370;SDS011;25099;51.946;4.838;2024-02-14T15:00:59;4.50;;;4.07;;
39370;SDS011;25099;51.946;4.838;2024-02-14T15:03:37;4.45;;;3.88;;
39370;SDS011;25099;51.946;4.838;2024-02-14T15:06:02;4.90;;;4.43;;
39370;SDS011;25099;51.946;4.838;2024-02-14T15:08:28;6.22;;;4.70;;
39370;SDS011;25099;51.946;4.838;2024-02-14T15:10:54;5.10;;;4.63;;
39370;SDS011;25099;51.946;4.838;2024-02-14T15:13:32;4.93;;;4.55;;
39370;SDS011;25099;51.946;4.838;2024-02-14T15:15:58;4.82;;;4.43;;
39370;SDS011;25099;51.946;4.838;2024-02-14T15:18:25;5.82;;;4.40;;
39370;SDS011;25099;51.946;4.838;2024-02-14T15:20:51;5.10;;;4.70;;
39370;SDS011;25099;51.946;4.838;2024-02-14T15:23:17;5.90;;;5.40;;
39370;SDS011;25099;51.946;4.838;2024-02-14T15:25:42;7.43;;;6.40;;
39370;SDS011;25099;51.946;4.838;2024-02-14T15:28:09;9.40;;;7.28;;
39370;SDS011;25099;51.946;4.838;2024-02-14T15:30:43;8.25;;;7.45;;
39370;SDS011;25099;51.946;4.838;2024-02-14T15:33:27;8.63;;;7.80;;
39370;SDS011;25099;51.946;4.838;2024-02-14T15:35:53;8.32;;;7.63;;
39370;SDS011;25099;51.946;4.838;2024-02-14T15:38:20;8.70;;;7.95;;
39370;SDS011;25099;51.946;4.838;2024-02-14T15:40:47;10.05;;;7.70;;
39370;SDS011;25099;51.946;4.838;2024-02-14T15:43:22;8.32;;;7.63;;
39370;SDS011;25099;51.946;4.838;2024-02-14T15:45:48;8.40;;;7.57;;
39370;SDS011;25099;51.946;4.838;2024-02-14T15:48:14;7.78;;;7.18;;
39370;SDS011;25099;51.946;4.838;2024-02-14T15:50:40;7.22;;;6.53;;
39370;SDS011;25099;51.946;4.838;2024-02-14T15:53:14;7.63;;;5.97;;